sensor_id;sensor_type;location;lat;lon;timestamp;temperature;humidity
32506;DHT22;18955;51.224;8.482;2023-04-24T00:00:57;11.50;85.80
32506;DHT22;18955;51.224;8.482;2023-04-24T00:03:24;11.50;85.80
32506;DHT22;18955;51.224;8.482;2023-04-24T00:05:50;11.40;85.80
32506;DHT22;18955;51.224;8.482;2023-04-24T00:08:18;11.40;85.80
32506;DHT22;18955;51.224;8.482;2023-04-24T00:10:44;11.40;85.80
32506;DHT22;18955;51.224;8.482;2023-04-24T00:13:11;11.40;85.80
32506;DHT22;18955;51.224;8.482;2023-04-24T00:15:37;11.40;85.80
32506;DHT22;18955;51.224;8.482;2023-04-24T00:18:03;11.30;85.80
32506;DHT22;18955;51.224;8.482;2023-04-24T00:20:29;11.30;85.70
32506;DHT22;18955;51.224;8.482;2023-04-24T00:22:58;11.10;85.60
32506;DHT22;18955;51.224;8.482;2023-04-24T00:25:24;11.30;85.70
32506;DHT22;18955;51.224;8.482;2023-04-24T00:27:50;11.30;85.70
32506;DHT22;18955;51.224;8.482;2023-04-24T00:30:17;11.30;85.70
32506;DHT22;18955;51.224;8.482;2023-04-24T00:32:43;11.20;85.70
32506;DHT22;18955;51.224;8.482;2023-04-24T00:35:09;11.20;85.70
32506;DHT22;18955;51.224;8.482;2023-04-24T00:37:36;11.20;85.70
32506;DHT22;18955;51.224;8.482;2023-04-24T00:40:03;11.10;85.60
32506;DHT22;18955;51.224;8.482;2023-04-24T00:42:29;11.20;85.80
32506;DHT22;18955;51.224;8.482;2023-04-24T00:44:56;11.10;85.60
32506;DHT22;18955;51.224;8.482;2023-04-24T00:47:23;11.10;85.60
32506;DHT22;18955;51.224;8.482;2023-04-24T00:49:51;11.10;85.60
32506;DHT22;18955;51.224;8.482;2023-04-24T00:52:18;11.10;85.60
32506;DHT22;18955;51.224;8.482;2023-04-24T00:54:45;11.10;85.60
32506;DHT22;18955;51.224;8.482;2023-04-24T00:57:13;11.00;85.60
32506;DHT22;18955;51.224;8.482;2023-04-24T00:59:41;11.00;85.60
32506;DHT22;18955;51.224;8.482;2023-04-24T01:02:09;11.00;85.60
32506;DHT22;18955;51.224;8.482;2023-04-24T01:04:37;11.00;85.60
32506;DHT22;18955;51.224;8.482;2023-04-24T01:07:04;10.90;85.60
32506;DHT22;18955;51.224;8.482;2023-04-24T01:09:40;10.90;85.80
32506;DHT22;18955;51.224;8.482;2023-04-24T01:12:09;10.90;85.80
32506;DHT22;18955;51.224;8.482;2023-04-24T01:14:37;10.90;85.70
32506;DHT22;18955;51.224;8.482;2023-04-24T01:17:04;10.90;85.50
32506;DHT22;18955;51.224;8.482;2023-04-24T01:19:30;10.80;85.60
32506;DHT22;18955;51.224;8.482;2023-04-24T01:21:58;10.80;85.60
32506;DHT22;18955;51.224;8.482;2023-04-24T01:24:25;10.80;85.70
32506;DHT22;18955;51.224;8.482;2023-04-24T01:26:54;10.80;85.60
32506;DHT22;18955;51.224;8.482;2023-04-24T01:29:21;10.80;85.70
32506;DHT22;18955;51.224;8.482;2023-04-24T01:31:47;10.60;85.70
32506;DHT22;18955;51.224;8.482;2023-04-24T01:34:14;10.70;85.60
32506;DHT22;18955;51.224;8.482;2023-04-24T01:36:41;10.70;85.70
32506;DHT22;18955;51.224;8.482;2023-04-24T01:39:08;10.70;85.90
32506;DHT22;18955;51.224;8.482;2023-04-24T01:41:35;10.60;85.70
32506;DHT22;18955;51.224;8.482;2023-04-24T01:44:01;10.60;85.80
32506;DHT22;18955;51.224;8.482;2023-04-24T01:46:28;10.60;85.60
32506;DHT22;18955;51.224;8.482;2023-04-24T01:48:54;10.60;85.60
32506;DHT22;18955;51.224;8.482;2023-04-24T01:51:22;10.60;85.70
32506;DHT22;18955;51.224;8.482;2023-04-24T01:53:48;10.60;85.80
32506;DHT22;18955;51.224;8.482;2023-04-24T01:56:15;10.50;85.70
32506;DHT22;18955;51.224;8.482;2023-04-24T01:58:41;10.50;85.90
32506;DHT22;18955;51.224;8.482;2023-04-24T02:01:08;10.50;85.80
32506;DHT22;18955;51.224;8.482;2023-04-24T02:03:34;10.50;85.80
32506;DHT22;18955;51.224;8.482;2023-04-24T02:06:00;10.50;85.90
32506;DHT22;18955;51.224;8.482;2023-04-24T02:08:27;10.50;86.00
32506;DHT22;18955;51.224;8.482;2023-04-24T02:10:53;10.40;85.70
32506;DHT22;18955;51.224;8.482;2023-04-24T02:13:19;10.40;85.70
32506;DHT22;18955;51.224;8.482;2023-04-24T02:15:46;10.40;85.70
32506;DHT22;18955;51.224;8.482;2023-04-24T02:18:12;10.40;85.80
32506;DHT22;18955;51.224;8.482;2023-04-24T02:20:38;10.40;85.90
32506;DHT22;18955;51.224;8.482;2023-04-24T02:23:04;10.30;85.90
32506;DHT22;18955;51.224;8.482;2023-04-24T02:25:31;10.30;85.90
32506;DHT22;18955;51.224;8.482;2023-04-24T02:27:57;10.30;86.00
32506;DHT22;18955;51.224;8.482;2023-04-24T02:30:26;10.30;85.90
32506;DHT22;18955;51.224;8.482;2023-04-24T02:32:52;10.30;86.00
32506;DHT22;18955;51.224;8.482;2023-04-24T02:35:19;10.30;86.00
32506;DHT22;18955;51.224;8.482;2023-04-24T02:37:45;10.30;86.00
32506;DHT22;18955;51.224;8.482;2023-04-24T02:40:12;10.30;86.00
32506;DHT22;18955;51.224;8.482;2023-04-24T02:42:38;10.20;85.90
32506;DHT22;18955;51.224;8.482;2023-04-24T02:45:04;10.20;85.80
32506;DHT22;18955;51.224;8.482;2023-04-24T02:47:31;10.20;86.10
32506;DHT22;18955;51.224;8.482;2023-04-24T02:49:57;10.20;86.00
32506;DHT22;18955;51.224;8.482;2023-04-24T02:52:23;10.10;85.90
32506;DHT22;18955;51.224;8.482;2023-04-24T02:54:49;10.20;86.00
32506;DHT22;18955;51.224;8.482;2023-04-24T02:57:16;10.10;86.00
32506;DHT22;18955;51.224;8.482;2023-04-24T02:59:42;10.10;86.00
32506;DHT22;18955;51.224;8.482;2023-04-24T03:02:09;10.10;86.10
32506;DHT22;18955;51.224;8.482;2023-04-24T03:04:35;10.10;86.00
32506;DHT22;18955;51.224;8.482;2023-04-24T03:07:01;10.10;86.10
32506;DHT22;18955;51.224;8.482;2023-04-24T03:09:27;10.10;86.00
32506;DHT22;18955;51.224;8.482;2023-04-24T03:11:54;10.10;86.00
32506;DHT22;18955;51.224;8.482;2023-04-24T03:14:20;10.00;86.00
32506;DHT22;18955;51.224;8.482;2023-04-24T03:16:46;10.00;86.10
32506;DHT22;18955;51.224;8.482;2023-04-24T03:19:12;10.00;86.10
32506;DHT22;18955;51.224;8.482;2023-04-24T03:21:49;10.00;86.10
32506;DHT22;18955;51.224;8.482;2023-04-24T03:24:16;10.00;85.90
32506;DHT22;18955;51.224;8.482;2023-04-24T03:26:42;9.90;86.00
32506;DHT22;18955;51.224;8.482;2023-04-24T03:29:35;9.90;85.90
32506;DHT22;18955;51.224;8.482;2023-04-24T03:32:01;9.90;86.10
32506;DHT22;18955;51.224;8.482;2023-04-24T03:34:28;10.00;86.10
32506;DHT22;18955;51.224;8.482;2023-04-24T03:36:56;10.00;86.10
32506;DHT22;18955;51.224;8.482;2023-04-24T03:39:24;9.90;86.10
32506;DHT22;18955;51.224;8.482;2023-04-24T03:41:54;9.90;86.20
32506;DHT22;18955;51.224;8.482;2023-04-24T03:44:26;9.90;86.20
32506;DHT22;18955;51.224;8.482;2023-04-24T03:46:52;9.90;86.20
32506;DHT22;18955;51.224;8.482;2023-04-24T03:49:21;9.90;86.20
32506;DHT22;18955;51.224;8.482;2023-04-24T03:51:48;9.80;86.30
32506;DHT22;18955;51.224;8.482;2023-04-24T03:54:19;9.80;86.30
32506;DHT22;18955;51.224;8.482;2023-04-24T03:56:46;9.80;86.10
32506;DHT22;18955;51.224;8.482;2023-04-24T03:59:12;9.80;86.10
32506;DHT22;18955;51.224;8.482;2023-04-24T04:01:41;9.80;86.20
32506;DHT22;18955;51.224;8.482;2023-04-24T04:04:13;9.80;86.00
32506;DHT22;18955;51.224;8.482;2023-04-24T04:06:40;9.80;86.20
32506;DHT22;18955;51.224;8.482;2023-04-24T04:09:07;9.80;86.10
32506;DHT22;18955;51.224;8.482;2023-04-24T04:11:35;9.80;86.20
32506;DHT22;18955;51.224;8.482;2023-04-24T04:14:02;9.80;86.20
32506;DHT22;18955;51.224;8.482;2023-04-24T04:16:28;9.70;86.00
32506;DHT22;18955;51.224;8.482;2023-04-24T04:19:00;9.70;86.10
32506;DHT22;18955;51.224;8.482;2023-04-24T04:21:29;9.70;86.10
32506;DHT22;18955;51.224;8.482;2023-04-24T04:24:06;9.70;86.10
32506;DHT22;18955;51.224;8.482;2023-04-24T04:26:38;9.70;86.00
32506;DHT22;18955;51.224;8.482;2023-04-24T04:29:07;9.70;85.90
32506;DHT22;18955;51.224;8.482;2023-04-24T04:31:36;9.70;85.90
32506;DHT22;18955;51.224;8.482;2023-04-24T04:34:07;9.70;86.00
32506;DHT22;18955;51.224;8.482;2023-04-24T04:36:34;9.70;86.00
32506;DHT22;18955;51.224;8.482;2023-04-24T04:39:12;9.60;85.90
32506;DHT22;18955;51.224;8.482;2023-04-24T04:41:51;9.70;86.00
32506;DHT22;18955;51.224;8.482;2023-04-24T04:44:20;9.60;85.90
32506;DHT22;18955;51.224;8.482;2023-04-24T04:46:47;9.60;85.90
32506;DHT22;18955;51.224;8.482;2023-04-24T04:49:22;9.60;86.00
32506;DHT22;18955;51.224;8.482;2023-04-24T04:51:50;9.60;86.10
32506;DHT22;18955;51.224;8.482;2023-04-24T04:54:18;9.60;85.90
32506;DHT22;18955;51.224;8.482;2023-04-24T04:56:45;9.60;86.00
32506;DHT22;18955;51.224;8.482;2023-04-24T04:59:11;9.50;85.90
32506;DHT22;18955;51.224;8.482;2023-04-24T05:01:39;9.50;86.10
32506;DHT22;18955;51.224;8.482;2023-04-24T05:04:07;9.50;86.10
32506;DHT22;18955;51.224;8.482;2023-04-24T05:06:33;9.50;86.10
32506;DHT22;18955;51.224;8.482;2023-04-24T05:09:00;9.50;86.00
32506;DHT22;18955;51.224;8.482;2023-04-24T05:11:34;9.50;85.90
32506;DHT22;18955;51.224;8.482;2023-04-24T05:14:01;9.50;85.90
32506;DHT22;18955;51.224;8.482;2023-04-24T05:16:39;9.50;86.00
32506;DHT22;18955;51.224;8.482;2023-04-24T05:19:07;9.50;85.90
32506;DHT22;18955;51.224;8.482;2023-04-24T05:21:40;9.50;86.00
32506;DHT22;18955;51.224;8.482;2023-04-24T05:24:07;9.50;86.10
32506;DHT22;18955;51.224;8.482;2023-04-24T05:26:56;9.40;85.90
32506;DHT22;18955;51.224;8.482;2023-04-24T05:29:28;9.40;85.80
32506;DHT22;18955;51.224;8.482;2023-04-24T05:31:57;9.40;85.90
32506;DHT22;18955;51.224;8.482;2023-04-24T05:34:23;9.40;86.00
32506;DHT22;18955;51.224;8.482;2023-04-24T05:36:53;9.40;85.90
32506;DHT22;18955;51.224;8.482;2023-04-24T05:39:20;9.40;86.00
32506;DHT22;18955;51.224;8.482;2023-04-24T05:41:46;9.40;85.80
32506;DHT22;18955;51.224;8.482;2023-04-24T05:44:12;9.40;86.00
32506;DHT22;18955;51.224;8.482;2023-04-24T05:46:39;9.80;86.20
32506;DHT22;18955;51.224;8.482;2023-04-24T05:49:05;9.30;86.00
32506;DHT22;18955;51.224;8.482;2023-04-24T05:51:33;9.40;85.90
32506;DHT22;18955;51.224;8.482;2023-04-24T05:54:00;9.30;85.80
32506;DHT22;18955;51.224;8.482;2023-04-24T05:56:27;9.30;85.80
32506;DHT22;18955;51.224;8.482;2023-04-24T05:58:53;9.30;85.90
32506;DHT22;18955;51.224;8.482;2023-04-24T06:01:20;9.30;85.80
32506;DHT22;18955;51.224;8.482;2023-04-24T06:03:53;9.30;86.00
32506;DHT22;18955;51.224;8.482;2023-04-24T06:06:20;9.30;85.90
32506;DHT22;18955;51.224;8.482;2023-04-24T06:08:46;9.30;85.90
32506;DHT22;18955;51.224;8.482;2023-04-24T06:11:12;9.30;85.80
32506;DHT22;18955;51.224;8.482;2023-04-24T06:13:39;9.20;85.80
32506;DHT22;18955;51.224;8.482;2023-04-24T06:16:34;9.20;85.80
32506;DHT22;18955;51.224;8.482;2023-04-24T06:19:08;9.20;85.90
32506;DHT22;18955;51.224;8.482;2023-04-24T06:21:35;9.20;85.60
32506;DHT22;18955;51.224;8.482;2023-04-24T06:24:01;9.20;85.80
32506;DHT22;18955;51.224;8.482;2023-04-24T06:26:28;9.20;85.70
32506;DHT22;18955;51.224;8.482;2023-04-24T06:28:54;9.20;85.80
32506;DHT22;18955;51.224;8.482;2023-04-24T06:31:20;9.20;85.90
32506;DHT22;18955;51.224;8.482;2023-04-24T06:33:48;9.20;85.70
32506;DHT22;18955;51.224;8.482;2023-04-24T06:36:15;9.10;85.70
32506;DHT22;18955;51.224;8.482;2023-04-24T06:38:42;9.20;85.80
32506;DHT22;18955;51.224;8.482;2023-04-24T06:41:09;9.10;85.70
32506;DHT22;18955;51.224;8.482;2023-04-24T06:43:36;9.10;85.80
32506;DHT22;18955;51.224;8.482;2023-04-24T06:46:02;9.10;85.70
32506;DHT22;18955;51.224;8.482;2023-04-24T06:48:29;9.10;85.70
32506;DHT22;18955;51.224;8.482;2023-04-24T06:50:55;9.10;85.80
32506;DHT22;18955;51.224;8.482;2023-04-24T06:53:21;9.10;85.50
32506;DHT22;18955;51.224;8.482;2023-04-24T06:55:48;9.20;85.70
32506;DHT22;18955;51.224;8.482;2023-04-24T06:58:14;9.10;85.70
32506;DHT22;18955;51.224;8.482;2023-04-24T07:00:41;9.10;85.80
32506;DHT22;18955;51.224;8.482;2023-04-24T07:03:08;9.10;85.70
32506;DHT22;18955;51.224;8.482;2023-04-24T07:05:34;9.10;85.70
32506;DHT22;18955;51.224;8.482;2023-04-24T07:08:01;9.10;85.70
32506;DHT22;18955;51.224;8.482;2023-04-24T07:10:27;9.10;85.80
32506;DHT22;18955;51.224;8.482;2023-04-24T07:12:54;9.10;85.70
32506;DHT22;18955;51.224;8.482;2023-04-24T07:15:22;9.10;85.70
32506;DHT22;18955;51.224;8.482;2023-04-24T07:17:49;9.10;85.70
32506;DHT22;18955;51.224;8.482;2023-04-24T07:20:16;9.10;85.40
32506;DHT22;18955;51.224;8.482;2023-04-24T07:22:42;9.30;85.60
32506;DHT22;18955;51.224;8.482;2023-04-24T07:25:08;9.20;85.50
32506;DHT22;18955;51.224;8.482;2023-04-24T07:27:35;9.10;85.50
32506;DHT22;18955;51.224;8.482;2023-04-24T07:30:03;9.10;85.50
32506;DHT22;18955;51.224;8.482;2023-04-24T07:32:30;9.10;85.60
32506;DHT22;18955;51.224;8.482;2023-04-24T07:34:56;9.10;85.60
32506;DHT22;18955;51.224;8.482;2023-04-24T07:37:23;9.10;85.60
32506;DHT22;18955;51.224;8.482;2023-04-24T07:39:49;9.00;85.50
32506;DHT22;18955;51.224;8.482;2023-04-24T07:42:16;9.10;85.70
32506;DHT22;18955;51.224;8.482;2023-04-24T07:44:42;9.10;85.60
32506;DHT22;18955;51.224;8.482;2023-04-24T07:47:08;9.00;85.50
32506;DHT22;18955;51.224;8.482;2023-04-24T07:49:35;9.00;85.50
32506;DHT22;18955;51.224;8.482;2023-04-24T07:52:01;9.00;85.60
32506;DHT22;18955;51.224;8.482;2023-04-24T07:54:28;9.00;85.60
32506;DHT22;18955;51.224;8.482;2023-04-24T07:56:55;9.00;85.60
32506;DHT22;18955;51.224;8.482;2023-04-24T07:59:21;9.00;85.50
32506;DHT22;18955;51.224;8.482;2023-04-24T08:01:47;9.00;85.50
32506;DHT22;18955;51.224;8.482;2023-04-24T08:04:14;9.00;85.60
32506;DHT22;18955;51.224;8.482;2023-04-24T08:06:40;9.00;85.60
32506;DHT22;18955;51.224;8.482;2023-04-24T08:09:06;9.00;85.60
32506;DHT22;18955;51.224;8.482;2023-04-24T08:11:33;9.00;85.50
32506;DHT22;18955;51.224;8.482;2023-04-24T08:13:59;9.00;85.60
32506;DHT22;18955;51.224;8.482;2023-04-24T08:16:25;9.00;85.70
32506;DHT22;18955;51.224;8.482;2023-04-24T08:18:52;9.00;85.60
32506;DHT22;18955;51.224;8.482;2023-04-24T08:21:18;9.00;85.60
32506;DHT22;18955;51.224;8.482;2023-04-24T08:23:46;9.00;85.60
32506;DHT22;18955;51.224;8.482;2023-04-24T08:26:13;9.00;85.60
32506;DHT22;18955;51.224;8.482;2023-04-24T08:28:39;8.90;85.60
32506;DHT22;18955;51.224;8.482;2023-04-24T08:31:06;8.90;85.60
32506;DHT22;18955;51.224;8.482;2023-04-24T08:33:32;8.90;85.60
32506;DHT22;18955;51.224;8.482;2023-04-24T08:36:05;9.00;85.70
32506;DHT22;18955;51.224;8.482;2023-04-24T08:38:31;8.90;85.70
32506;DHT22;18955;51.224;8.482;2023-04-24T08:40:59;9.00;85.10
32506;DHT22;18955;51.224;8.482;2023-04-24T08:43:26;8.90;85.60
32506;DHT22;18955;51.224;8.482;2023-04-24T08:45:55;9.00;85.60
32506;DHT22;18955;51.224;8.482;2023-04-24T08:48:22;8.90;85.60
32506;DHT22;18955;51.224;8.482;2023-04-24T08:50:50;8.90;85.50
32506;DHT22;18955;51.224;8.482;2023-04-24T08:53:18;8.90;85.60
32506;DHT22;18955;51.224;8.482;2023-04-24T08:55:47;9.00;85.60
32506;DHT22;18955;51.224;8.482;2023-04-24T08:58:15;9.00;85.60
32506;DHT22;18955;51.224;8.482;2023-04-24T09:00:42;9.00;85.50
32506;DHT22;18955;51.224;8.482;2023-04-24T09:03:16;9.00;85.50
32506;DHT22;18955;51.224;8.482;2023-04-24T09:05:43;9.00;85.60
32506;DHT22;18955;51.224;8.482;2023-04-24T09:08:13;9.00;85.60
32506;DHT22;18955;51.224;8.482;2023-04-24T09:10:40;8.90;85.50
32506;DHT22;18955;51.224;8.482;2023-04-24T09:13:06;8.90;85.50
32506;DHT22;18955;51.224;8.482;2023-04-24T09:15:35;9.00;85.60
32506;DHT22;18955;51.224;8.482;2023-04-24T09:18:01;9.00;85.60
32506;DHT22;18955;51.224;8.482;2023-04-24T09:20:28;9.00;85.60
32506;DHT22;18955;51.224;8.482;2023-04-24T09:22:56;9.00;85.60
32506;DHT22;18955;51.224;8.482;2023-04-24T09:25:30;9.00;85.50
32506;DHT22;18955;51.224;8.482;2023-04-24T09:28:03;9.00;85.60
32506;DHT22;18955;51.224;8.482;2023-04-24T09:30:30;9.00;85.60
32506;DHT22;18955;51.224;8.482;2023-04-24T09:33:14;9.00;85.50
32506;DHT22;18955;51.224;8.482;2023-04-24T09:35:41;9.00;85.50
32506;DHT22;18955;51.224;8.482;2023-04-24T09:38:09;9.00;85.50
32506;DHT22;18955;51.224;8.482;2023-04-24T09:40:36;9.00;85.40
32506;DHT22;18955;51.224;8.482;2023-04-24T09:43:02;9.00;85.50
32506;DHT22;18955;51.224;8.482;2023-04-24T09:45:35;9.00;85.50
32506;DHT22;18955;51.224;8.482;2023-04-24T09:48:01;9.00;85.50
32506;DHT22;18955;51.224;8.482;2023-04-24T09:50:30;9.00;85.50
32506;DHT22;18955;51.224;8.482;2023-04-24T09:53:01;9.00;85.40
32506;DHT22;18955;51.224;8.482;2023-04-24T09:55:28;9.00;85.50
32506;DHT22;18955;51.224;8.482;2023-04-24T09:57:58;9.00;85.40
32506;DHT22;18955;51.224;8.482;2023-04-24T10:00:31;9.00;85.50
32506;DHT22;18955;51.224;8.482;2023-04-24T10:03:04;9.00;85.50
32506;DHT22;18955;51.224;8.482;2023-04-24T10:05:40;9.00;85.50
32506;DHT22;18955;51.224;8.482;2023-04-24T10:08:11;9.00;85.50
32506;DHT22;18955;51.224;8.482;2023-04-24T10:10:46;9.00;85.50
32506;DHT22;18955;51.224;8.482;2023-04-24T10:13:13;9.00;85.60
32506;DHT22;18955;51.224;8.482;2023-04-24T10:15:41;9.00;85.50
32506;DHT22;18955;51.224;8.482;2023-04-24T10:18:08;9.00;85.50
32506;DHT22;18955;51.224;8.482;2023-04-24T10:20:37;9.00;85.40
32506;DHT22;18955;51.224;8.482;2023-04-24T10:23:04;9.00;85.40
32506;DHT22;18955;51.224;8.482;2023-04-24T10:25:32;9.00;85.40
32506;DHT22;18955;51.224;8.482;2023-04-24T10:28:00;9.00;85.40
32506;DHT22;18955;51.224;8.482;2023-04-24T10:30:28;9.00;85.40
32506;DHT22;18955;51.224;8.482;2023-04-24T10:32:55;9.00;85.90
32506;DHT22;18955;51.224;8.482;2023-04-24T10:35:22;9.00;85.50
32506;DHT22;18955;51.224;8.482;2023-04-24T10:37:56;9.00;85.40
32506;DHT22;18955;51.224;8.482;2023-04-24T10:40:34;9.00;85.40
32506;DHT22;18955;51.224;8.482;2023-04-24T10:43:05;9.00;85.50
32506;DHT22;18955;51.224;8.482;2023-04-24T10:45:34;9.00;85.50
32506;DHT22;18955;51.224;8.482;2023-04-24T10:50:41;9.00;85.50
32506;DHT22;18955;51.224;8.482;2023-04-24T10:53:15;9.00;85.20
32506;DHT22;18955;51.224;8.482;2023-04-24T10:55:52;9.00;85.30
32506;DHT22;18955;51.224;8.482;2023-04-24T10:58:24;9.00;85.30
32506;DHT22;18955;51.224;8.482;2023-04-24T11:00:58;9.00;85.30
32506;DHT22;18955;51.224;8.482;2023-04-24T11:03:29;9.00;85.30
32506;DHT22;18955;51.224;8.482;2023-04-24T11:11:11;9.00;85.30
32506;DHT22;18955;51.224;8.482;2023-04-24T11:18:59;9.00;85.30
32506;DHT22;18955;51.224;8.482;2023-04-24T11:21:31;9.00;85.30
32506;DHT22;18955;51.224;8.482;2023-04-24T11:23:58;9.00;85.40
32506;DHT22;18955;51.224;8.482;2023-04-24T11:26:24;9.00;85.40
32506;DHT22;18955;51.224;8.482;2023-04-24T11:29:06;9.00;85.40
32506;DHT22;18955;51.224;8.482;2023-04-24T11:31:40;9.00;85.40
32506;DHT22;18955;51.224;8.482;2023-04-24T11:34:14;8.90;85.20
32506;DHT22;18955;51.224;8.482;2023-04-24T11:36:43;9.00;85.30
32506;DHT22;18955;51.224;8.482;2023-04-24T11:39:10;9.00;85.30
32506;DHT22;18955;51.224;8.482;2023-04-24T11:41:37;9.00;85.30
32506;DHT22;18955;51.224;8.482;2023-04-24T11:44:06;9.00;85.30
32506;DHT22;18955;51.224;8.482;2023-04-24T11:46:32;9.00;85.30
32506;DHT22;18955;51.224;8.482;2023-04-24T11:48:59;9.00;85.30
32506;DHT22;18955;51.224;8.482;2023-04-24T11:51:26;9.00;85.30
32506;DHT22;18955;51.224;8.482;2023-04-24T11:53:56;9.00;85.30
32506;DHT22;18955;51.224;8.482;2023-04-24T11:56:24;9.00;85.40
32506;DHT22;18955;51.224;8.482;2023-04-24T11:58:53;9.00;85.30
32506;DHT22;18955;51.224;8.482;2023-04-24T12:01:21;9.00;85.40
32506;DHT22;18955;51.224;8.482;2023-04-24T12:03:48;9.00;85.30
32506;DHT22;18955;51.224;8.482;2023-04-24T12:06:14;9.00;85.30
32506;DHT22;18955;51.224;8.482;2023-04-24T12:08:40;9.00;85.30
32506;DHT22;18955;51.224;8.482;2023-04-24T12:11:07;9.00;85.30
32506;DHT22;18955;51.224;8.482;2023-04-24T12:13:34;9.00;85.30
32506;DHT22;18955;51.224;8.482;2023-04-24T12:16:03;9.00;85.20
32506;DHT22;18955;51.224;8.482;2023-04-24T12:18:31;9.00;85.30
32506;DHT22;18955;51.224;8.482;2023-04-24T12:21:15;9.00;85.30
32506;DHT22;18955;51.224;8.482;2023-04-24T12:23:46;9.00;85.30
32506;DHT22;18955;51.224;8.482;2023-04-24T12:26:17;9.00;85.30
32506;DHT22;18955;51.224;8.482;2023-04-24T12:28:47;9.00;85.40
32506;DHT22;18955;51.224;8.482;2023-04-24T12:31:14;9.00;85.40
32506;DHT22;18955;51.224;8.482;2023-04-24T12:33:41;9.00;85.40
32506;DHT22;18955;51.224;8.482;2023-04-24T12:36:07;9.00;85.50
32506;DHT22;18955;51.224;8.482;2023-04-24T12:38:35;9.00;85.50
32506;DHT22;18955;51.224;8.482;2023-04-24T12:41:11;9.00;85.50
32506;DHT22;18955;51.224;8.482;2023-04-24T12:43:38;9.00;85.50
32506;DHT22;18955;51.224;8.482;2023-04-24T12:46:05;9.00;85.50
32506;DHT22;18955;51.224;8.482;2023-04-24T12:48:31;9.00;85.50
32506;DHT22;18955;51.224;8.482;2023-04-24T12:50:58;9.00;85.50
32506;DHT22;18955;51.224;8.482;2023-04-24T12:53:27;9.00;85.40
32506;DHT22;18955;51.224;8.482;2023-04-24T12:55:56;9.00;85.40
32506;DHT22;18955;51.224;8.482;2023-04-24T12:58:22;8.90;85.50
32506;DHT22;18955;51.224;8.482;2023-04-24T13:00:48;9.00;85.50
32506;DHT22;18955;51.224;8.482;2023-04-24T13:03:15;9.00;85.50
32506;DHT22;18955;51.224;8.482;2023-04-24T13:05:42;8.90;85.40
32506;DHT22;18955;51.224;8.482;2023-04-24T13:08:09;9.00;85.50
32506;DHT22;18955;51.224;8.482;2023-04-24T13:10:35;9.00;85.50
32506;DHT22;18955;51.224;8.482;2023-04-24T13:13:01;9.00;85.60
32506;DHT22;18955;51.224;8.482;2023-04-24T13:15:28;8.90;85.60
32506;DHT22;18955;51.224;8.482;2023-04-24T13:17:55;9.00;85.70
32506;DHT22;18955;51.224;8.482;2023-04-24T13:20:21;9.00;85.60
32506;DHT22;18955;51.224;8.482;2023-04-24T13:22:47;8.90;85.50
32506;DHT22;18955;51.224;8.482;2023-04-24T13:25:13;9.00;85.60
32506;DHT22;18955;51.224;8.482;2023-04-24T13:27:42;8.90;85.50
32506;DHT22;18955;51.224;8.482;2023-04-24T13:30:09;9.00;85.50
32506;DHT22;18955;51.224;8.482;2023-04-24T13:32:35;8.90;85.50
32506;DHT22;18955;51.224;8.482;2023-04-24T13:35:02;8.90;85.50
32506;DHT22;18955;51.224;8.482;2023-04-24T13:37:28;9.00;85.60
32506;DHT22;18955;51.224;8.482;2023-04-24T13:39:55;9.00;85.70
32506;DHT22;18955;51.224;8.482;2023-04-24T13:42:21;9.00;85.70
32506;DHT22;18955;51.224;8.482;2023-04-24T13:44:47;9.00;85.70
32506;DHT22;18955;51.224;8.482;2023-04-24T13:47:13;9.00;85.60
32506;DHT22;18955;51.224;8.482;2023-04-24T13:49:39;9.00;85.60
32506;DHT22;18955;51.224;8.482;2023-04-24T13:52:06;9.00;85.50
32506;DHT22;18955;51.224;8.482;2023-04-24T13:54:33;9.00;85.50
32506;DHT22;18955;51.224;8.482;2023-04-24T13:56:59;9.00;85.50
32506;DHT22;18955;51.224;8.482;2023-04-24T13:59:26;9.00;85.50
32506;DHT22;18955;51.224;8.482;2023-04-24T14:01:52;9.00;85.50
32506;DHT22;18955;51.224;8.482;2023-04-24T14:04:18;9.00;85.60
32506;DHT22;18955;51.224;8.482;2023-04-24T14:06:45;9.00;85.60
32506;DHT22;18955;51.224;8.482;2023-04-24T14:09:11;9.00;85.60
32506;DHT22;18955;51.224;8.482;2023-04-24T14:11:38;9.00;85.60
32506;DHT22;18955;51.224;8.482;2023-04-24T14:14:05;9.00;85.60
32506;DHT22;18955;51.224;8.482;2023-04-24T14:16:31;8.90;85.60
32506;DHT22;18955;51.224;8.482;2023-04-24T14:18:57;9.00;85.70
32506;DHT22;18955;51.224;8.482;2023-04-24T14:21:24;9.00;85.70
32506;DHT22;18955;51.224;8.482;2023-04-24T14:23:50;9.00;85.70
32506;DHT22;18955;51.224;8.482;2023-04-24T14:26:17;9.00;85.60
32506;DHT22;18955;51.224;8.482;2023-04-24T14:28:43;9.00;85.60
32506;DHT22;18955;51.224;8.482;2023-04-24T14:31:09;9.00;85.50
32506;DHT22;18955;51.224;8.482;2023-04-24T14:33:35;9.00;85.50
32506;DHT22;18955;51.224;8.482;2023-04-24T14:36:01;9.00;85.50
32506;DHT22;18955;51.224;8.482;2023-04-24T14:38:29;9.00;85.50
32506;DHT22;18955;51.224;8.482;2023-04-24T14:40:58;9.00;85.50
32506;DHT22;18955;51.224;8.482;2023-04-24T14:43:25;9.00;85.50
32506;DHT22;18955;51.224;8.482;2023-04-24T14:45:51;9.00;85.60
32506;DHT22;18955;51.224;8.482;2023-04-24T14:48:17;9.00;85.60
32506;DHT22;18955;51.224;8.482;2023-04-24T14:50:43;9.00;85.60
32506;DHT22;18955;51.224;8.482;2023-04-24T14:53:11;9.00;85.60
32506;DHT22;18955;51.224;8.482;2023-04-24T14:55:37;8.90;85.60
32506;DHT22;18955;51.224;8.482;2023-04-24T14:58:03;9.00;85.80
32506;DHT22;18955;51.224;8.482;2023-04-24T15:00:30;9.00;85.80
32506;DHT22;18955;51.224;8.482;2023-04-24T15:02:56;9.00;85.70
32506;DHT22;18955;51.224;8.482;2023-04-24T15:05:22;9.00;85.60
32506;DHT22;18955;51.224;8.482;2023-04-24T15:07:50;9.00;85.50
32506;DHT22;18955;51.224;8.482;2023-04-24T15:10:16;9.00;85.50
32506;DHT22;18955;51.224;8.482;2023-04-24T15:12:43;9.00;85.50
32506;DHT22;18955;51.224;8.482;2023-04-24T15:15:09;9.00;85.60
32506;DHT22;18955;51.224;8.482;2023-04-24T15:17:36;9.00;86.20
32506;DHT22;18955;51.224;8.482;2023-04-24T15:20:02;9.00;85.60
32506;DHT22;18955;51.224;8.482;2023-04-24T15:22:29;9.00;85.60
32506;DHT22;18955;51.224;8.482;2023-04-24T15:24:55;9.00;85.30
32506;DHT22;18955;51.224;8.482;2023-04-24T15:27:22;8.90;85.20
32506;DHT22;18955;51.224;8.482;2023-04-24T15:29:48;8.90;85.60
32506;DHT22;18955;51.224;8.482;2023-04-24T15:32:14;8.90;85.70
32506;DHT22;18955;51.224;8.482;2023-04-24T15:34:40;8.90;85.60
32506;DHT22;18955;51.224;8.482;2023-04-24T15:37:07;8.90;85.40
32506;DHT22;18955;51.224;8.482;2023-04-24T15:39:33;8.90;85.40
32506;DHT22;18955;51.224;8.482;2023-04-24T15:41:59;8.90;85.90
32506;DHT22;18955;51.224;8.482;2023-04-24T15:44:26;8.90;85.50
32506;DHT22;18955;51.224;8.482;2023-04-24T15:46:52;8.90;85.60
32506;DHT22;18955;51.224;8.482;2023-04-24T15:49:18;8.90;85.80
32506;DHT22;18955;51.224;8.482;2023-04-24T15:51:44;8.90;85.80
32506;DHT22;18955;51.224;8.482;2023-04-24T15:54:11;8.90;85.90
32506;DHT22;18955;51.224;8.482;2023-04-24T15:56:37;8.90;86.00
32506;DHT22;18955;51.224;8.482;2023-04-24T15:59:03;8.90;85.90